Time;durP1;ratioP1;P1;durP2;ratioP2;P2;SDS_P1;SDS_P2;PMS_P1;PMS_P2;Temp;Humidity;BMP_temperature;BMP_pressure;BME280_temperature;BME280_humidity;BME280_pressure;Samples;Min_cycle;Max_cycle;Signal;HPM_P1;HPM_P2
2023/12/30 00:01:40;;;;;;;11.10;2.35;;;;;;;7.88;100.00;100553.81;5009959;28;20672;-61
2023/12/30 00:04:05;;;;;;;6.95;1.20;;;;;;;7.86;100.00;100561.50;5010576;28;20045;-61
2023/12/30 00:06:31;;;;;;;6.88;1.30;;;;;;;7.84;100.00;100560.66;5006605;28;20149;-59
2023/12/30 00:08:56;;;;;;;10.18;2.25;;;;;;;7.86;100.00;100553.78;5011423;28;20041;-61
2023/12/30 00:11:22;;;;;;;5.78;1.35;;;;;;;7.83;100.00;100555.53;5007504;28;20038;-61
2023/12/30 00:13:47;;;;;;;10.32;1.77;;;;;;;7.88;100.00;100559.81;5004089;28;20048;-60
2023/12/30 00:16:13;;;;;;;10.57;2.30;;;;;;;7.99;100.00;100557.22;5008543;28;20602;-60
2023/12/30 00:18:39;;;;;;;12.32;1.98;;;;;;;8.10;100.00;100568.34;5016082;28;20544;-61
2023/12/30 00:21:04;;;;;;;8.80;1.80;;;;;;;8.21;100.00;100558.06;5013360;28;20157;-60
2023/12/30 00:23:29;;;;;;;15.90;2.10;;;;;;;8.26;100.00;100558.88;5010387;28;20064;-60
2023/12/30 00:25:55;;;;;;;7.20;1.67;;;;;;;8.32;100.00;100566.59;5011039;28;20136;-60
2023/12/30 00:28:23;;;;;;;13.15;1.77;;;;;;;8.42;100.00;100571.75;5005188;28;20512;-61
2023/12/30 00:30:49;;;;;;;8.73;1.60;;;;;;;8.54;100.00;100574.25;5013974;28;20153;-60
2023/12/30 00:33:14;;;;;;;10.68;3.00;;;;;;;8.56;100.00;100571.69;5007545;28;20029;-61
2023/12/30 00:35:40;;;;;;;15.13;4.72;;;;;;;8.55;100.00;100570.81;5006408;28;20717;-60
2023/12/30 00:38:06;;;;;;;8.32;2.50;;;;;;;8.46;100.00;100576.00;5012899;28;20385;-58
2023/12/30 00:40:31;;;;;;;9.93;1.95;;;;;;;8.38;100.00;100577.75;5006825;28;20045;-58
2023/12/30 00:42:56;;;;;;;11.65;1.83;;;;;;;8.42;100.00;100576.03;5009938;28;20082;-58
2023/12/30 00:45:22;;;;;;;9.30;1.42;;;;;;;8.36;100.00;100579.47;5009288;28;20045;-61
2023/12/30 00:47:47;;;;;;;13.38;1.60;;;;;;;8.36;100.00;100581.19;5006240;28;20046;-58
2023/12/30 00:50:13;;;;;;;10.60;1.60;;;;;;;8.46;100.00;100580.28;5009091;28;20037;-58
2023/12/30 00:52:39;;;;;;;15.10;2.05;;;;;;;8.44;100.00;100585.47;5009104;28;20041;-58
2023/12/30 00:55:05;;;;;;;9.52;1.63;;;;;;;8.45;100.00;100587.19;5007332;28;20050;-58
2023/12/30 00:57:30;;;;;;;5.78;1.52;;;;;;;8.39;100.00;100584.63;5010938;28;20125;-58
2023/12/30 00:59:55;;;;;;;8.90;1.05;;;;;;;8.38;100.00;100584.63;5005580;28;20032;-57
2023/12/30 01:02:21;;;;;;;8.48;1.30;;;;;;;8.30;100.00;100583.78;5009942;28;20038;-58
2023/12/30 01:04:46;;;;;;;9.95;1.50;;;;;;;8.20;100.00;100593.22;5009158;28;20052;-58
2023/12/30 01:07:11;;;;;;;7.90;1.92;;;;;;;8.13;100.00;100599.25;5008817;28;20083;-58
2023/12/30 01:09:37;;;;;;;8.77;1.55;;;;;;;8.18;100.00;100605.25;5001805;28;20392;-58
2023/12/30 01:12:03;;;;;;;10.13;1.83;;;;;;;8.12;100.00;100609.56;5002544;28;20072;-58
2023/12/30 01:14:29;;;;;;;9.70;1.67;;;;;;;8.16;100.00;100613.84;5005548;28;20037;-58
2023/12/30 01:16:54;;;;;;;9.63;1.40;;;;;;;8.16;100.00;100613.84;5009383;28;20042;-58
2023/12/30 01:19:20;;;;;;;9.50;1.50;;;;;;;8.13;100.00;100622.41;5007663;28;20045;-57
2023/12/30 01:21:45;;;;;;;7.18;1.50;;;;;;;8.08;100.00;100626.72;5001617;28;20563;-58
2023/12/30 01:24:10;;;;;;;9.95;2.05;;;;;;;8.09;100.00;100623.28;5005342;28;20168;-58
2023/12/30 01:26:39;;;;;;;7.22;1.85;;;;;;;8.06;100.00;100628.44;5012271;28;20797;-58
2023/12/30 01:29:04;;;;;;;12.75;2.13;;;;;;;8.01;100.00;100632.75;5005756;28;20037;-58
2023/12/30 01:31:29;;;;;;;9.88;1.90;;;;;;;8.01;100.00;100636.16;5001479;28;20693;-58
2023/12/30 01:33:55;;;;;;;11.02;2.25;;;;;;;7.97;100.00;100637.03;5006258;28;20722;-58
2023/12/30 01:36:20;;;;;;;7.65;1.98;;;;;;;7.95;100.00;100635.31;5019605;28;20033;-59
2023/12/30 01:38:46;;;;;;;15.07;2.05;;;;;;;7.92;100.00;100625.84;5014692;28;20045;-58
2023/12/30 01:41:11;;;;;;;7.85;1.40;;;;;;;7.92;100.00;100627.59;5008812;28;20041;-58
2023/12/30 01:43:37;;;;;;;4.45;1.30;;;;;;;7.90;100.00;100634.44;5015680;28;20080;-58
2023/12/30 01:46:09;;;;;;;7.47;1.77;;;;;;;7.82;100.00;100638.72;5009733;28;20054;-58
2023/12/30 01:48:35;;;;;;;7.10;2.00;;;;;;;7.76;100.00;100644.72;5013650;28;20045;-58
2023/12/30 01:51:01;;;;;;;9.48;1.77;;;;;;;7.76;100.00;100637.00;5005615;28;20030;-58
2023/12/30 01:53:30;;;;;;;8.82;1.45;;;;;;;7.69;100.00;100640.41;5001948;28;20042;-58
2023/12/30 01:55:57;;;;;;;12.95;2.40;;;;;;;7.66;100.00;100642.13;5004057;28;20037;-58
2023/12/30 01:58:23;;;;;;;4.65;1.60;;;;;;;7.62;100.00;100640.44;5012613;28;20038;-58
2023/12/30 02:00:54;;;;;;;9.65;1.95;;;;;;;7.62;100.00;100648.13;5003834;28;20088;-58
2023/12/30 02:03:21;;;;;;;7.47;1.80;;;;;;;7.58;100.00;100655.00;5012951;28;20112;-58
2023/12/30 02:05:47;;;;;;;6.75;2.50;;;;;;;7.57;100.00;100667.81;5013257;28;20056;-61
2023/12/30 02:08:14;;;;;;;6.45;1.52;;;;;;;7.58;100.00;100670.41;5006469;28;20271;-58
2023/12/30 02:10:40;;;;;;;6.45;1.50;;;;;;;7.57;100.00;100675.53;5007697;28;20462;-58
2023/12/30 02:13:06;;;;;;;7.78;1.80;;;;;;;7.55;100.00;100675.56;4999753;28;20038;-58
2023/12/30 02:15:32;;;;;;;12.88;1.98;;;;;;;7.55;100.00;100675.56;5003240;28;20044;-58
2023/12/30 02:17:57;;;;;;;6.82;2.08;;;;;;;7.55;100.00;100677.25;5005672;28;20049;-58
2023/12/30 02:20:23;;;;;;;10.63;2.10;;;;;;;7.53;100.00;100674.72;5011533;28;20042;-58
2023/12/30 02:22:49;;;;;;;11.07;2.67;;;;;;;7.59;100.00;100684.16;5014009;28;20045;-58
2023/12/30 02:25:15;;;;;;;9.15;1.85;;;;;;;7.59;100.00;100686.72;5020129;28;20045;-58
2023/12/30 02:27:44;;;;;;;10.15;1.33;;;;;;;7.60;100.00;100693.56;5012974;28;20144;-58
2023/12/30 02:30:10;;;;;;;7.55;1.52;;;;;;;7.65;100.00;100687.59;5011640;28;20029;-58
2023/12/30 02:32:36;;;;;;;7.47;1.73;;;;;;;7.66;100.00;100691.00;5015994;28;20137;-60
2023/12/30 02:35:01;;;;;;;6.00;1.75;;;;;;;7.68;100.00;100689.31;5013821;28;20103;-59
2023/12/30 02:37:27;;;;;;;6.60;1.40;;;;;;;7.67;100.00;100682.44;5017743;28;20068;-58
2023/12/30 02:39:52;;;;;;;8.73;1.85;;;;;;;7.67;100.00;100692.72;5006848;28;20049;-58
2023/12/30 02:42:17;;;;;;;4.60;1.92;;;;;;;7.66;100.00;100698.72;5015001;28;20029;-58
2023/12/30 02:44:43;;;;;;;5.75;1.88;;;;;;;7.68;100.00;100704.75;5019778;28;20775;-58
2023/12/30 02:47:08;;;;;;;8.95;2.08;;;;;;;7.69;100.00;100698.72;5007916;28;20156;-58
2023/12/30 02:49:34;;;;;;;7.78;2.42;;;;;;;7.76;100.00;100701.34;5007665;28;20087;-58
2023/12/30 02:52:00;;;;;;;7.32;1.92;;;;;;;7.75;100.00;100697.03;5014806;28;20104;-58
2023/12/30 02:54:27;;;;;;;6.07;1.90;;;;;;;7.76;100.00;100708.19;5016530;28;20096;-58
2023/12/30 02:56:52;;;;;;;11.18;1.88;;;;;;;7.82;100.00;100703.91;5011013;28;20045;-58
2023/12/30 02:59:18;;;;;;;8.70;1.73;;;;;;;7.90;100.00;100709.06;5008795;28;20538;-58
2023/12/30 03:01:43;;;;;;;8.65;1.63;;;;;;;7.93;100.00;100715.06;5017609;28;20053;-58
2023/12/30 03:04:08;;;;;;;6.22;1.65;;;;;;;7.98;100.00;100709.94;5017467;28;20034;-58
2023/12/30 03:06:34;;;;;;;6.93;1.70;;;;;;;7.96;100.00;100709.94;5013394;28;20037;-58
2023/12/30 03:08:59;;;;;;;6.20;1.60;;;;;;;7.97;100.00;100703.06;5015843;28;20656;-58
2023/12/30 03:11:25;;;;;;;3.53;1.20;;;;;;;7.99;100.00;100706.50;5015355;28;20041;-58
2023/12/30 03:13:51;;;;;;;8.05;1.80;;;;;;;8.04;100.00;100701.38;5013037;28;20100;-59
2023/12/30 03:16:16;;;;;;;10.07;1.77;;;;;;;8.12;100.00;100702.22;5010430;28;20041;-58
2023/12/30 03:18:43;;;;;;;8.80;1.70;;;;;;;8.23;100.00;100705.66;5009630;28;20041;-59
2023/12/30 03:21:09;;;;;;;7.40;1.70;;;;;;;8.30;100.00;100703.09;5011285;28;20536;-59
2023/12/30 03:23:36;;;;;;;13.15;2.28;;;;;;;8.38;100.00;100703.94;5016108;28;20645;-58
2023/12/30 03:26:03;;;;;;;13.18;2.78;;;;;;;8.41;100.00;100706.53;5015630;28;20053;-59
2023/12/30 03:28:28;;;;;;;10.38;1.85;;;;;;;8.46;100.00;100709.06;5015193;28;20083;-58
2023/12/30 03:30:54;;;;;;;8.13;1.90;;;;;;;8.50;100.00;100703.94;5009261;28;20038;-58
2023/12/30 03:33:19;;;;;;;11.27;1.98;;;;;;;8.57;100.00;100704.78;5014815;28;20037;-58
2023/12/30 03:35:45;;;;;;;10.43;2.13;;;;;;;8.63;100.00;100698.78;5015528;28;20088;-59
2023/12/30 03:38:10;;;;;;;8.82;1.83;;;;;;;8.67;100.00;100709.06;5019545;28;20077;-58
2023/12/30 03:40:35;;;;;;;11.15;1.60;;;;;;;8.69;99.80;100712.50;5010666;28;20033;-59
2023/12/30 03:43:01;;;;;;;8.80;1.90;;;;;;;8.69;100.00;100711.66;5013203;28;20107;-59
2023/12/30 03:45:26;;;;;;;8.70;1.30;;;;;;;8.66;100.00;100717.66;5015456;28;20060;-58
2023/12/30 03:47:54;;;;;;;11.40;1.55;;;;;;;8.66;100.00;100707.38;5013925;28;20095;-58
2023/12/30 03:50:20;;;;;;;7.47;1.30;;;;;;;8.62;100.00;100715.94;5016178;28;20034;-58
2023/12/30 03:52:46;;;;;;;8.45;1.75;;;;;;;8.61;100.00;100703.91;5013556;28;20034;-58
2023/12/30 03:55:12;;;;;;;20.83;10.95;;;;;;;8.57;100.00;100713.34;5017644;28;20052;-60
2023/12/30 03:57:37;;;;;;;21.67;8.10;;;;;;;8.57;100.00;100709.94;5017396;28;20033;-58
2023/12/30 04:00:03;;;;;;;9.32;2.08;;;;;;;8.60;100.00;100712.53;5013599;28;20064;-59
2023/12/30 04:02:29;;;;;;;6.68;1.55;;;;;;;8.63;100.00;100711.66;5010466;28;20213;-58
2023/12/30 04:04:54;;;;;;;7.40;1.55;;;;;;;8.68;99.87;100710.78;5005017;28;20081;-58
2023/12/30 04:07:19;;;;;;;17.40;2.28;;;;;;;8.80;97.54;100705.59;5013170;28;20076;-58
2023/12/30 04:09:45;;;;;;;5.18;1.45;;;;;;;8.84;97.31;100706.47;5007640;28;20140;-58
2023/12/30 04:12:10;;;;;;;12.25;1.70;;;;;;;8.91;95.81;100698.69;5008767;28;20026;-58
2023/12/30 04:14:35;;;;;;;9.25;2.03;;;;;;;8.87;96.60;100712.44;5014477;28;20310;-58
2023/12/30 04:17:01;;;;;;;9.05;1.83;;;;;;;8.81;97.26;100712.47;5013423;28;20041;-58
2023/12/30 04:19:26;;;;;;;6.85;1.92;;;;;;;8.79;97.12;100715.91;5009268;28;20038;-58
2023/12/30 04:21:52;;;;;;;9.18;2.08;;;;;;;8.79;96.89;100709.03;5009260;28;20034;-58
2023/12/30 04:24:18;;;;;;;5.90;1.67;;;;;;;8.83;96.52;100708.19;5005772;28;20017;-58
2023/12/30 04:26:44;;;;;;;11.32;1.90;;;;;;;8.80;97.93;100718.50;5005862;28;20054;-58
2023/12/30 04:29:09;;;;;;;11.80;2.08;;;;;;;8.78;98.00;100725.38;5007121;28;20048;-59
2023/12/30 04:31:35;;;;;;;13.15;2.53;;;;;;;8.77;98.00;100728.81;5012041;28;20124;-58
2023/12/30 04:34:00;;;;;;;10.85;1.83;;;;;;;8.71;98.15;100728.81;5004039;28;20068;-58
2023/12/30 04:36:26;;;;;;;11.30;2.25;;;;;;;8.68;97.39;100721.09;5015382;28;20048;-58
2023/12/30 04:38:51;;;;;;;6.70;1.70;;;;;;;8.66;98.10;100722.81;5005943;28;20457;-58
2023/12/30 04:41:16;;;;;;;7.90;1.60;;;;;;;8.63;98.50;100727.97;5010805;28;20075;-58
2023/12/30 04:43:41;;;;;;;8.68;2.20;;;;;;;8.58;99.48;100733.13;5007605;28;20041;-58
2023/12/30 04:46:07;;;;;;;10.90;1.73;;;;;;;8.58;99.81;100735.69;5006284;28;20038;-58
2023/12/30 04:48:32;;;;;;;9.77;2.00;;;;;;;8.57;99.75;100746.84;5006619;28;20044;-59
2023/12/30 04:50:58;;;;;;;9.88;2.15;;;;;;;8.63;100.00;100747.72;5013374;28;20025;-58
2023/12/30 04:53:23;;;;;;;8.05;1.88;;;;;;;8.67;99.76;100749.41;5009729;28;20029;-58
2023/12/30 04:55:49;;;;;;;8.65;2.13;;;;;;;8.66;100.00;100740.84;5011841;28;20622;-58
2023/12/30 04:58:14;;;;;;;5.55;1.77;;;;;;;8.67;100.00;100749.41;5005863;28;20125;-58
2023/12/30 05:00:39;;;;;;;9.80;1.75;;;;;;;8.69;99.76;100753.75;5008959;28;20057;-58
2023/12/30 05:03:05;;;;;;;9.02;2.30;;;;;;;8.68;100.00;100752.00;5004135;28;20069;-58
2023/12/30 05:05:30;;;;;;;13.70;2.13;;;;;;;8.69;100.00;100753.75;5003189;28;20064;-58
2023/12/30 05:07:55;;;;;;;10.48;1.83;;;;;;;8.72;99.99;100751.16;5011185;28;20033;-58
2023/12/30 05:10:21;;;;;;;6.68;1.70;;;;;;;8.72;99.75;100768.34;5015490;28;20126;-58
2023/12/30 05:12:46;;;;;;;10.80;2.15;;;;;;;8.71;99.68;100764.03;5005111;28;20091;-58
2023/12/30 05:15:14;;;;;;;8.43;2.40;;;;;;;8.75;100.00;100758.03;5011316;28;20041;-58
2023/12/30 05:17:40;;;;;;;10.25;1.92;;;;;;;8.73;100.00;100755.44;5009705;28;20045;-58
2023/12/30 05:20:08;;;;;;;11.38;1.92;;;;;;;8.75;99.37;100756.31;5002807;28;20037;-58
2023/12/30 05:22:34;;;;;;;7.55;1.80;;;;;;;8.78;98.93;100752.88;5006898;28;20052;-58
2023/12/30 05:24:59;;;;;;;9.27;1.50;;;;;;;8.84;98.90;100752.84;5008791;28;20090;-63
2023/12/30 05:27:25;;;;;;;10.70;1.75;;;;;;;8.85;99.08;100751.97;5007801;28;20492;-58
2023/12/30 05:29:50;;;;;;;9.52;1.90;;;;;;;8.86;97.73;100738.25;5008152;28;20124;-58
2023/12/30 05:32:15;;;;;;;9.90;2.03;;;;;;;8.85;98.13;100747.69;5000720;28;20142;-58
2023/12/30 05:34:41;;;;;;;10.85;1.80;;;;;;;8.85;97.82;100749.41;5008021;28;20145;-59
2023/12/30 05:37:06;;;;;;;10.55;1.58;;;;;;;8.86;98.18;100758.84;5005707;28;20116;-59
2023/12/30 05:39:31;;;;;;;10.73;1.52;;;;;;;8.87;98.01;100748.53;5012685;28;20164;-59
2023/12/30 05:41:57;;;;;;;7.70;2.25;;;;;;;8.88;97.34;100750.25;5013519;28;20052;-58
2023/12/30 05:44:22;;;;;;;9.10;1.75;;;;;;;8.90;97.16;100756.25;5004922;28;20145;-58
2023/12/30 05:46:47;;;;;;;6.68;1.70;;;;;;;8.92;96.69;100753.69;5013555;28;20049;-58
2023/12/30 05:49:13;;;;;;;9.70;1.63;;;;;;;8.88;96.60;100757.13;5005465;28;20112;-58
2023/12/30 05:51:45;;;;;;;5.82;1.48;;;;;;;8.76;97.08;100758.00;5010516;28;20400;-61
2023/12/30 05:54:10;;;;;;;14.35;2.60;;;;;;;8.68;97.03;100759.75;5013075;28;20032;-62
2023/12/30 05:56:35;;;;;;;10.88;1.90;;;;;;;8.58;97.71;100776.91;5008995;28;20041;-58
2023/12/30 05:59:01;;;;;;;5.50;1.50;;;;;;;8.47;98.97;100775.19;5010109;28;20045;-59
2023/12/30 06:01:26;;;;;;;5.22;1.45;;;;;;;8.36;100.00;100780.34;5006214;28;20041;-59
2023/12/30 06:03:52;;;;;;;12.02;2.10;;;;;;;8.37;99.37;100779.47;5006678;28;20040;-59
2023/12/30 06:06:19;;;;;;;10.02;1.83;;;;;;;8.38;99.34;100775.19;5005236;28;20894;-59
2023/12/30 06:08:45;;;;;;;13.90;1.92;;;;;;;8.30;99.66;100790.66;5012931;28;20440;-58
2023/12/30 06:11:11;;;;;;;10.02;1.85;;;;;;;8.22;100.00;100784.59;5005789;28;20053;-58
2023/12/30 06:13:39;;;;;;;10.00;1.70;;;;;;;8.21;100.00;100795.78;5006560;28;20049;-59
2023/12/30 06:16:05;;;;;;;6.22;1.83;;;;;;;8.22;100.00;100799.22;5010690;28;20516;-58
2023/12/30 06:18:31;;;;;;;9.73;1.83;;;;;;;8.27;100.00;100795.78;5005585;28;20132;-58
2023/12/30 06:20:58;;;;;;;13.10;1.73;;;;;;;8.32;99.86;100791.50;5012956;28;20030;-59
2023/12/30 06:23:24;;;;;;;8.93;1.38;;;;;;;8.38;99.36;100799.22;5002022;28;20042;-59
2023/12/30 06:25:49;;;;;;;9.60;2.17;;;;;;;8.35;99.89;100798.38;5007987;28;20134;-58
2023/12/30 06:28:14;;;;;;;17.88;2.20;;;;;;;8.33;99.94;100797.53;5015322;28;20122;-59
2023/12/30 06:30:40;;;;;;;8.52;1.80;;;;;;;8.33;100.00;100795.81;5004814;28;20048;-58
2023/12/30 06:33:08;;;;;;;8.15;1.88;;;;;;;8.34;100.00;100796.63;5008666;28;20405;-58
2023/12/30 06:35:36;;;;;;;8.82;1.80;;;;;;;8.34;100.00;100791.50;5010734;28;20041;-58
2023/12/30 06:38:02;;;;;;;6.80;1.38;;;;;;;8.35;100.00;100795.78;5005527;28;20046;-59
2023/12/30 06:40:27;;;;;;;11.68;1.63;;;;;;;8.36;100.00;100795.81;5007881;28;20096;-59
2023/12/30 06:42:53;;;;;;;3.42;1.08;;;;;;;8.37;100.00;100805.22;5011232;28;20041;-58
2023/12/30 06:45:18;;;;;;;11.48;2.00;;;;;;;8.34;100.00;100807.81;5004332;28;20105;-61
2023/12/30 06:47:44;;;;;;;8.55;1.90;;;;;;;8.35;100.00;100798.38;5012126;28;20048;-59
2023/12/30 06:50:12;;;;;;;13.55;2.58;;;;;;;8.42;100.00;100806.13;5012513;28;20084;-59
2023/12/30 06:52:37;;;;;;;10.40;2.38;;;;;;;8.55;99.94;100805.25;5006722;28;20038;-59
2023/12/30 06:55:03;;;;;;;9.25;1.63;;;;;;;8.69;97.81;100806.97;5003759;28;20048;-58
2023/12/30 06:57:28;;;;;;;7.95;1.55;;;;;;;8.76;97.19;100812.13;5010065;28;20033;-58
2023/12/30 06:59:55;;;;;;;7.78;1.40;;;;;;;8.91;95.68;100806.97;5005762;28;20045;-58
2023/12/30 07:02:21;;;;;;;12.32;2.03;;;;;;;8.90;96.98;100818.13;5006954;28;20037;-57
2023/12/30 07:04:46;;;;;;;8.25;2.28;;;;;;;8.90;98.32;100819.88;5002017;28;20824;-59
2023/12/30 07:07:12;;;;;;;8.18;1.40;;;;;;;8.86;99.45;100828.44;5009725;28;20045;-58
2023/12/30 07:09:39;;;;;;;9.23;1.80;;;;;;;8.80;99.87;100836.19;5013360;28;20558;-58
2023/12/30 07:12:04;;;;;;;9.45;1.80;;;;;;;8.79;99.65;100840.47;5009110;28;20462;-58
2023/12/30 07:14:34;;;;;;;8.48;1.42;;;;;;;8.77;99.50;100841.34;5007699;28;20034;-58
2023/12/30 07:16:59;;;;;;;12.07;1.42;;;;;;;8.76;99.03;100835.31;5010216;28;20535;-58
2023/12/30 07:19:25;;;;;;;5.70;1.30;;;;;;;8.74;98.38;100842.19;5012707;28;20029;-58
2023/12/30 07:21:50;;;;;;;10.23;1.60;;;;;;;8.77;97.12;100834.47;5012188;28;20160;-58
2023/12/30 07:24:16;;;;;;;9.35;1.55;;;;;;;8.75;98.19;100840.50;5019647;28;20033;-61
2023/12/30 07:26:41;;;;;;;7.05;1.13;;;;;;;8.78;96.30;100843.94;5011841;28;20745;-61
2023/12/30 07:29:07;;;;;;;5.45;1.20;;;;;;;8.76;97.80;100862.78;5009753;28;20128;-62
2023/12/30 07:31:32;;;;;;;5.50;1.15;;;;;;;8.72;97.75;100864.53;5009541;28;20045;-63
2023/12/30 07:33:57;;;;;;;5.25;1.10;;;;;;;8.66;100.00;100868.81;5011396;28;20428;-63
2023/12/30 07:36:24;;;;;;;8.07;1.17;;;;;;;8.56;100.00;100873.09;5002781;28;20128;-63
2023/12/30 07:38:49;;;;;;;7.93;1.63;;;;;;;8.42;100.00;100867.94;5008064;28;20501;-63
2023/12/30 07:41:15;;;;;;;10.13;2.53;;;;;;;8.33;100.00;100869.63;5005978;28;20036;-61
2023/12/30 07:43:41;;;;;;;11.40;2.13;;;;;;;8.22;100.00;100871.31;5012167;28;20037;-58
2023/12/30 07:46:06;;;;;;;10.10;1.58;;;;;;;8.17;100.00;100873.00;5009575;28;20044;-58
2023/12/30 07:48:31;;;;;;;11.18;1.50;;;;;;;8.12;100.00;100867.84;5009867;28;20084;-59
2023/12/30 07:50:57;;;;;;;6.13;1.20;;;;;;;8.07;100.00;100866.13;5015354;28;20037;-58
2023/12/30 07:53:22;;;;;;;4.95;1.30;;;;;;;8.02;100.00;100868.66;5018181;28;20059;-58
2023/12/30 07:55:48;;;;;;;4.35;1.10;;;;;;;7.99;100.00;100881.53;5008890;28;20062;-59
2023/12/30 07:58:13;;;;;;;9.40;1.52;;;;;;;7.95;100.00;100880.66;5009678;28;20041;-59
2023/12/30 08:00:38;;;;;;;11.95;2.33;;;;;;;7.93;100.00;100889.22;5008475;28;20044;-59
2023/12/30 08:03:04;;;;;;;5.82;1.80;;;;;;;7.93;100.00;100896.94;5010506;28;20029;-59
2023/12/30 08:05:29;;;;;;;9.23;2.40;;;;;;;7.92;100.00;100892.66;5005401;28;20030;-58
2023/12/30 08:07:55;;;;;;;5.78;1.45;;;;;;;7.89;100.00;100888.34;5008038;28;20082;-58
2023/12/30 08:10:20;;;;;;;4.57;1.40;;;;;;;7.86;100.00;100897.78;5012791;28;20151;-58
2023/12/30 08:12:45;;;;;;;6.10;1.45;;;;;;;7.85;100.00;100898.63;5009739;28;20037;-59
2023/12/30 08:15:11;;;;;;;5.40;1.40;;;;;;;7.85;100.00;100898.63;5007480;28;20048;-58
2023/12/30 08:17:36;;;;;;;6.68;1.70;;;;;;;7.85;100.00;100898.63;5002160;28;20033;-58
2023/12/30 08:20:03;;;;;;;6.32;1.38;;;;;;;7.84;100.00;100902.03;5005508;28;20416;-58
2023/12/30 08:22:29;;;;;;;10.43;2.20;;;;;;;7.86;100.00;100900.34;5004559;28;20100;-58
2023/12/30 08:24:54;;;;;;;5.47;1.50;;;;;;;7.91;100.00;100898.66;5004769;28;20041;-58
2023/12/30 08:27:20;;;;;;;8.05;1.65;;;;;;;7.92;100.00;100900.38;5010149;28;20477;-58
2023/12/30 08:29:45;;;;;;;7.97;1.60;;;;;;;7.94;100.00;100909.81;5010517;28;20107;-58
2023/12/30 08:32:10;;;;;;;7.95;1.75;;;;;;;7.97;100.00;100909.84;5012719;28;20701;-58
2023/12/30 08:34:36;;;;;;;6.57;1.30;;;;;;;8.00;100.00;100920.16;5012573;28;20042;-63
2023/12/30 08:37:08;;;;;;;6.90;1.30;;;;;;;8.02;100.00;100910.72;5016034;28;20752;-62
2023/12/30 08:39:34;;;;;;;6.85;1.90;;;;;;;8.06;100.00;100910.72;5010485;28;20524;-62
2023/12/30 08:41:59;;;;;;;14.10;2.63;;;;;;;8.14;100.00;100916.75;5006423;28;20041;-63
2023/12/30 08:44:26;;;;;;;10.15;2.20;;;;;;;8.22;100.00;100908.19;5007287;28;20045;-58
2023/12/30 08:46:52;;;;;;;10.25;2.28;;;;;;;8.33;100.00;100926.28;5006632;28;20034;-58
2023/12/30 08:49:17;;;;;;;6.82;1.65;;;;;;;8.42;100.00;100926.31;5007212;28;20122;-59
2023/12/30 08:51:42;;;;;;;5.55;1.92;;;;;;;8.53;100.00;100928.06;5014263;28;20037;-61
2023/12/30 08:54:08;;;;;;;6.35;2.38;;;;;;;8.67;100.00;100934.94;5010923;28;20037;-58
2023/12/30 08:56:33;;;;;;;6.25;1.80;;;;;;;8.77;100.00;100927.25;5010628;28;20029;-62
2023/12/30 08:58:59;;;;;;;10.18;2.72;;;;;;;8.88;100.00;100928.09;5009775;28;20132;-63
2023/12/30 09:01:24;;;;;;;9.90;2.80;;;;;;;8.96;100.00;100928.97;5001344;28;20034;-58
2023/12/30 09:03:50;;;;;;;8.52;2.38;;;;;;;9.04;99.84;100926.41;5007183;28;20057;-61
2023/12/30 09:06:15;;;;;;;9.15;2.63;;;;;;;9.10;99.57;100927.28;5010397;28;20052;-59
2023/12/30 09:08:41;;;;;;;9.07;2.15;;;;;;;9.16;98.79;100922.97;5011974;28;20045;-61
2023/12/30 09:11:20;;;;;;;8.30;2.05;;;;;;;9.21;96.44;100921.25;5003603;28;21876;-58
2023/12/30 09:13:46;;;;;;;10.40;2.42;;;;;;;9.28;97.18;100923.84;5007491;28;20040;-60
2023/12/30 09:16:11;;;;;;;9.73;2.42;;;;;;;9.33;94.53;100914.34;5006916;28;20038;-59
2023/12/30 09:18:37;;;;;;;8.95;2.10;;;;;;;9.40;95.02;100917.81;5006321;28;20128;-59
2023/12/30 09:21:02;;;;;;;8.05;2.35;;;;;;;9.47;92.83;100902.28;5014655;28;20032;-59
2023/12/30 09:23:28;;;;;;;12.20;2.47;;;;;;;9.51;92.50;100898.84;5002690;28;20715;-59
2023/12/30 09:25:53;;;;;;;6.30;1.88;;;;;;;9.56;91.91;100906.56;5007948;28;20500;-59
2023/12/30 09:28:18;;;;;;;9.85;2.20;;;;;;;9.60;91.40;100908.34;5010390;28;20082;-59
2023/12/30 09:30:44;;;;;;;9.70;2.00;;;;;;;9.65;92.18;100920.34;5013201;28;20061;-59
2023/12/30 09:33:09;;;;;;;9.27;2.53;;;;;;;9.68;90.84;100914.31;5005874;28;20717;-59
2023/12/30 09:35:34;;;;;;;7.95;1.65;;;;;;;9.73;90.31;100912.63;5015617;28;20408;-63
2023/12/30 09:38:00;;;;;;;7.45;1.77;;;;;;;9.78;89.87;100905.72;5012130;28;20042;-63
2023/12/30 09:40:27;;;;;;;6.40;1.95;;;;;;;9.84;89.24;100905.69;5004464;28;20041;-63
2023/12/30 09:42:55;;;;;;;7.47;2.20;;;;;;;9.91;88.57;100906.53;5009375;28;20044;-63
2023/12/30 09:45:21;;;;;;;13.43;2.25;;;;;;;9.96;87.60;100895.31;5005649;28;20452;-63
2023/12/30 09:47:47;;;;;;;12.98;3.15;;;;;;;10.02;88.10;100902.19;5008509;28;20061;-63
2023/12/30 09:50:12;;;;;;;10.45;2.20;;;;;;;10.06;88.22;100898.72;5011529;28;21171;-63
2023/12/30 09:52:38;;;;;;;8.07;2.55;;;;;;;10.09;87.30;100884.06;5002496;28;20100;-62
2023/12/30 09:55:04;;;;;;;8.35;2.40;;;;;;;10.11;86.43;100878.91;5003898;28;20029;-63
2023/12/30 09:57:29;;;;;;;9.65;1.92;;;;;;;10.14;86.03;100879.75;5013121;28;20037;-62
2023/12/30 09:59:55;;;;;;;8.35;1.80;;;;;;;10.19;85.42;100875.41;5006476;28;20112;-63
2023/12/30 10:02:21;;;;;;;10.50;2.72;;;;;;;10.24;84.50;100873.66;5006918;28;20041;-63
2023/12/30 10:04:49;;;;;;;9.07;2.28;;;;;;;10.28;85.23;100874.50;5007748;28;20164;-63
2023/12/30 10:07:15;;;;;;;7.28;1.52;;;;;;;10.35;85.13;100880.50;5010414;28;20065;-63
2023/12/30 10:09:41;;;;;;;11.40;2.03;;;;;;;10.38;84.91;100881.34;5011610;28;20116;-63
2023/12/30 10:12:08;;;;;;;5.82;2.15;;;;;;;10.41;84.67;100865.81;5014189;28;20898;-62
2023/12/30 10:14:33;;;;;;;11.68;2.33;;;;;;;10.51;83.93;100857.13;5007007;28;20064;-62
2023/12/30 10:17:03;;;;;;;7.75;2.13;;;;;;;10.56;82.86;100854.53;5008096;28;20145;-63
2023/12/30 10:19:29;;;;;;;8.48;2.25;;;;;;;10.58;82.85;100845.03;5010768;28;20029;-62
2023/12/30 10:21:55;;;;;;;5.78;1.83;;;;;;;10.59;81.25;100826.94;5008767;28;20888;-61
2023/12/30 10:24:20;;;;;;;11.82;2.08;;;;;;;10.64;82.03;100839.81;5006189;28;20030;-59
2023/12/30 10:26:47;;;;;;;4.63;1.60;;;;;;;10.68;82.59;100834.59;5002237;28;20052;-59
2023/12/30 10:29:14;;;;;;;5.35;1.58;;;;;;;10.72;82.55;100848.34;5008768;28;20055;-61
2023/12/30 10:31:39;;;;;;;7.43;2.05;;;;;;;10.80;83.05;100838.84;5006246;28;20250;-59
2023/12/30 10:34:07;;;;;;;8.40;1.90;;;;;;;10.88;82.27;100834.44;5004631;28;20531;-58
2023/12/30 10:36:33;;;;;;;5.88;1.80;;;;;;;10.91;81.21;100823.22;5006663;28;20034;-63
2023/12/30 10:39:00;;;;;;;7.90;1.73;;;;;;;10.97;81.05;100825.75;5011347;28;20025;-58
2023/12/30 10:41:26;;;;;;;7.38;2.22;;;;;;;11.06;80.10;100802.38;5011816;28;20049;-58
2023/12/30 10:43:52;;;;;;;9.52;3.03;;;;;;;11.14;80.03;100809.19;5009882;28;20038;-63
2023/12/30 10:46:19;;;;;;;8.85;2.38;;;;;;;11.16;79.84;100799.69;5008636;28;20045;-59
2023/12/30 10:48:52;;;;;;;8.75;2.55;;;;;;;11.19;79.10;100776.38;5011807;28;20311;-60
2023/12/30 10:51:24;;;;;;;7.85;1.92;;;;;;;11.27;78.78;100771.13;5006547;28;20112;-59
2023/12/30 10:53:59;;;;;;;6.85;2.03;;;;;;;11.33;78.72;100779.69;5006740;28;20026;-64
2023/12/30 10:56:28;;;;;;;;;;;;;;;11.37;78.54;100782.25;5009739;28;20059;-65
2023/12/30 10:58:59;;;;;;;8.43;1.95;;;;;;;11.39;77.98;100765.81;5012896;28;19928;-65
2023/12/30 11:01:25;;;;;;;6.28;1.70;;;;;;;11.44;75.78;100738.16;5015714;28;20033;-65
2023/12/30 11:03:52;;;;;;;11.57;2.13;;;;;;;11.52;75.41;100732.88;5012001;28;20048;-65
2023/12/30 11:06:26;;;;;;;7.07;2.20;;;;;;;11.63;76.17;100754.34;5010296;28;20058;-65
2023/12/30 11:08:52;;;;;;;9.30;2.35;;;;;;;11.73;75.75;100742.97;5007453;28;20049;-64
2023/12/30 11:11:19;;;;;;;7.05;1.58;;;;;;;11.76;74.92;100727.38;5006442;28;20044;-65
2023/12/30 11:13:46;;;;;;;8.60;1.77;;;;;;;11.77;74.84;100719.63;5008491;28;20051;-65
2023/12/30 11:16:16;;;;;;;11.48;2.15;;;;;;;11.83;74.85;100723.84;5006560;28;20034;-62
2023/12/30 11:18:57;;;;;;;7.72;1.67;;;;;;;11.76;74.11;100710.13;5013964;28;20030;-61